Time;durP1;ratioP1;P1;durP2;ratioP2;P2;SDS_P1;SDS_P2;PMS_P1;PMS_P2;Temp;Humidity;BMP_temperature;BMP_pressure;BME280_temperature;BME280_humidity;BME280_pressure;Samples;Min_cycle;Max_cycle;Signal;HPM_P1;HPM_P2
2023/10/09 00:01:26;;;;;;;;;8.00;6.00;;;;;12.84;77.79;100294.91;5095471;28;8812;-60
2023/10/09 00:03:55;;;;;;;;;14.50;13.75;;;;;13.20;77.23;100288.34;5096078;28;8840;-58
2023/10/09 00:06:23;;;;;;;;;8.00;7.00;;;;;13.58;76.25;100296.63;5095965;28;8901;-58
2023/10/09 00:08:54;;;;;;;;;9.50;9.00;;;;;13.84;75.66;100285.34;5094985;28;8806;-60
2023/10/09 00:11:26;;;;;;;;;12.00;9.50;;;;;14.00;75.32;100284.81;5099373;28;8826;-59
2023/10/09 00:13:57;;;;;;;;;6.00;6.00;;;;;14.04;75.38;100294.31;5101898;28;8798;-60
2023/10/09 00:16:32;;;;;;;;;8.50;6.00;;;;;13.92;75.41;100290.00;5095948;28;9479;-60
2023/10/09 00:19:13;;;;;;;;;4.50;4.00;;;;;13.79;75.71;100290.25;5095287;28;8859;-60
2023/10/09 00:21:40;;;;;;;;;12.00;11.00;;;;;13.74;76.47;100280.94;5095520;28;8829;-59
2023/10/09 00:24:13;;;;;;;;;12.00;9.75;;;;;13.98;75.59;100274.25;5094808;28;9564;-60
2023/10/09 00:26:45;;;;;;;;;14.50;10.00;;;;;14.22;75.20;100276.63;5095601;28;8845;-60
2023/10/09 00:29:21;;;;;;;;;9.25;9.00;;;;;14.49;74.81;100274.16;5095243;28;8806;-60
2023/10/09 00:31:54;;;;;;;;;10.50;9.50;;;;;14.81;73.93;100277.44;5094857;28;8933;-61
2023/10/09 00:34:22;;;;;;;;;7.50;7.50;;;;;15.08;73.27;100266.81;5095614;28;8853;-60
2023/10/09 00:36:53;;;;;;;;;12.50;12.50;;;;;15.28;73.75;100264.00;5095412;28;8817;-60
2023/10/09 00:39:40;;;;;;;;;13.25;12.50;;;;;15.44;72.81;100266.09;5094805;28;8861;-61
2023/10/09 00:42:12;;;;;;;;;12.25;10.50;;;;;15.58;72.89;100262.94;5094901;28;9571;-61
2023/10/09 00:44:41;;;;;;;;;13.50;11.00;;;;;15.72;72.41;100246.38;5095500;28;8938;-60
2023/10/09 00:47:20;;;;;;;;;14.00;13.00;;;;;15.90;72.80;100249.97;5095387;28;8932;-61
2023/10/09 00:49:49;;;;;;;;;12.00;10.00;;;;;16.11;72.40;100242.50;5095222;28;8798;-60
2023/10/09 00:52:26;;;;;;;;;14.25;14.25;;;;;16.26;71.84;100237.31;5095524;28;8810;-60
2023/10/09 00:55:00;;;;;;;;;10.80;10.00;;;;;16.41;71.60;100230.47;5094749;28;8825;-61
2023/10/09 00:57:28;;;;;;;;;10.40;9.20;;;;;16.54;71.81;100233.66;5094834;28;8860;-60
2023/10/09 00:59:59;;;;;;;;;12.20;11.20;;;;;16.67;71.33;100228.75;5098446;28;8872;-59
2023/10/09 01:02:35;;;;;;;;;13.40;10.40;;;;;16.76;71.12;100227.81;5098213;28;8903;-61
2023/10/09 01:05:18;;;;;;;;;7.80;7.40;;;;;16.84;71.18;100224.34;5098460;28;8944;-61
2023/10/09 01:07:46;;;;;;;;;10.60;8.60;;;;;16.93;71.10;100218.88;5099217;28;8829;-60
2023/10/09 01:10:16;;;;;;;;;10.80;9.60;;;;;16.99;71.26;100220.09;5098604;28;9838;-61
2023/10/09 01:12:44;;;;;;;;;8.60;8.60;;;;;17.03;71.54;100216.97;5110743;28;8840;-61
2023/10/09 01:15:35;;;;;;;;;10.40;10.00;;;;;17.11;71.47;100210.78;5098853;28;8809;-61
2023/10/09 01:18:01;;;;;;;;;14.00;14.00;;;;;17.15;71.59;100199.53;5098457;28;8849;-60
2023/10/09 01:20:36;;;;;;;;;9.00;9.00;;;;;17.18;71.20;100203.78;5098507;28;8821;-61
2023/10/09 01:23:04;;;;;;;;;13.00;13.00;;;;;17.22;71.57;100200.59;5098686;28;8832;-61
2023/10/09 01:25:42;;;;;;;;;12.80;11.60;;;;;17.24;71.76;100187.81;5098280;28;8839;-60
2023/10/09 01:28:10;;;;;;;;;13.00;12.40;;;;;17.30;71.56;100194.44;5098225;28;8810;-60
2023/10/09 01:30:41;;;;;;;;;12.00;10.00;;;;;17.32;71.50;100190.56;5098399;28;8814;-60
2023/10/09 01:33:21;;;;;;;;;10.40;9.80;;;;;17.31;72.00;100191.56;5098190;28;8859;-61
2023/10/09 01:35:52;;;;;;;;;14.20;12.00;;;;;17.34;72.08;100202.03;5098284;28;8817;-60
2023/10/09 01:38:30;;;;;;;;;13.00;11.20;;;;;17.34;72.37;100193.97;5098208;28;8833;-60
2023/10/09 01:41:04;;;;;;;;;15.00;13.80;;;;;17.32;72.41;100205.91;5098243;28;8834;-61
2023/10/09 01:43:34;;;;;;;;;13.20;11.60;;;;;17.30;72.24;100219.50;5098423;28;8833;-61
2023/10/09 01:46:03;;;;;;;;;9.60;9.40;;;;;17.24;72.16;100217.44;5098033;28;8848;-59
2023/10/09 01:48:35;;;;;;;;;12.00;10.00;;;;;17.17;72.35;100226.31;5098246;28;8944;-60
2023/10/09 01:51:08;;;;;;;;;7.00;5.60;;;;;17.10;73.20;100222.56;5097987;28;8806;-61
2023/10/09 01:53:38;;;;;;;;;12.00;9.20;;;;;17.02;72.62;100214.41;5097820;28;9472;-61
2023/10/09 01:56:05;;;;;;;;;12.00;11.60;;;;;16.96;72.85;100207.81;5097783;28;8826;-60
2023/10/09 01:58:33;;;;;;;;;12.20;12.00;;;;;16.96;73.02;100217.72;5097571;28;8821;-60
2023/10/09 02:01:04;;;;;;;;;12.60;12.00;;;;;16.94;72.95;100223.25;5098015;28;8841;-60
2023/10/09 02:03:36;;;;;;;;;12.00;10.80;;;;;16.95;73.00;100224.94;5097810;28;8845;-58
2023/10/09 02:06:17;;;;;;;;;7.80;6.40;;;;;16.94;73.24;100217.88;5097710;28;8822;-59
2023/10/09 02:08:49;;;;;;;;;7.00;7.00;;;;;16.93;73.08;100218.88;5082047;28;8835;-61
2023/10/09 02:11:24;;;;;;;;;9.60;8.60;;;;;16.92;73.20;100216.34;5077297;28;8847;-60
2023/10/09 02:14:01;;;;;;;;;9.80;8.20;;;;;16.91;73.18;100218.19;5077214;28;8819;-59
2023/10/09 02:16:29;;;;;;;;;12.40;11.60;;;;;16.90;73.48;100215.66;5068658;28;8810;-58
2023/10/09 02:18:58;;;;;;;;;13.40;12.40;;;;;16.89;73.44;100211.28;5056961;28;8828;-59
2023/10/09 02:21:39;;;;;;;;;10.40;9.40;;;;;16.86;73.23;100214.28;5058165;28;8818;-58
2023/10/09 02:24:26;;;;;;;;;12.60;11.20;;;;;16.83;73.62;100212.75;5097669;28;8802;-57
2023/10/09 02:27:07;;;;;;;;;9.00;8.60;;;;;16.81;73.77;100212.06;5085294;28;8811;-57
2023/10/09 02:29:38;;;;;;;;;11.20;10.00;;;;;16.79;73.53;100208.66;5076884;28;8812;-57
2023/10/09 02:32:16;;;;;;;;;11.60;10.00;;;;;16.78;73.90;100206.97;5076927;28;8828;-57
2023/10/09 02:34:46;;;;;;;;;13.00;11.60;;;;;16.79;73.73;100203.28;5076947;28;8824;-57
2023/10/09 02:37:14;;;;;;;;;10.60;10.60;;;;;16.81;73.90;100203.13;5077170;28;8870;-56
2023/10/09 02:39:47;;;;;;;;;10.20;10.20;;;;;16.80;73.35;100202.28;5093505;28;8914;-59
2023/10/09 02:42:23;;;;;;;;;15.40;12.00;;;;;16.81;73.77;100206.69;5097210;28;8986;-58
2023/10/09 02:44:51;;;;;;;;;8.60;7.80;;;;;16.83;73.58;100199.28;5096920;28;8817;-58
2023/10/09 02:47:24;;;;;;;;;6.40;5.20;;;;;16.88;73.33;100191.63;5097226;28;8874;-57
2023/10/09 02:49:52;;;;;;;;;12.20;10.80;;;;;16.91;73.16;100188.59;5096716;28;8841;-56
2023/10/09 02:52:24;;;;;;;;;9.60;9.40;;;;;16.98;73.26;100197.75;5096803;28;9544;-59
2023/10/09 02:54:59;;;;;;;;;12.20;11.00;;;;;17.02;73.41;100204.47;5096592;28;8955;-58
2023/10/09 02:57:29;;;;;;;;;9.40;9.00;;;;;17.06;72.94;100199.63;5096869;28;8832;-58
2023/10/09 02:59:59;;;;;;;;;10.00;9.60;;;;;17.11;72.75;100200.88;5096610;28;8825;-56
2023/10/09 03:02:27;;;;;;;;;7.40;7.40;;;;;17.16;72.86;100195.84;5096693;28;8829;-56
2023/10/09 03:04:55;;;;;;;;;9.00;9.00;;;;;17.18;72.77;100203.78;5096694;28;9499;-57
2023/10/09 03:07:23;;;;;;;;;9.40;7.40;;;;;17.18;72.88;100193.88;5096656;28;8821;-57
2023/10/09 03:09:51;;;;;;;;;11.60;8.60;;;;;17.21;72.92;100187.28;5096424;28;8839;-57
2023/10/09 03:12:18;;;;;;;;;13.00;12.00;;;;;17.22;72.65;100189.84;5096152;28;8825;-57
2023/10/09 03:14:46;;;;;;;;;10.00;9.60;;;;;17.22;72.72;100184.44;5096228;28;8849;-57
2023/10/09 03:17:14;;;;;;;;;10.00;9.60;;;;;17.25;72.90;100194.06;5096616;28;9557;-56
2023/10/09 03:19:43;;;;;;;;;7.80;7.80;;;;;17.26;72.35;100188.53;5096410;28;8931;-57
2023/10/09 03:22:11;;;;;;;;;7.00;4.40;;;;;17.25;72.62;100173.34;5111650;28;8804;-59
2023/10/09 03:24:41;;;;;;;;;7.40;6.80;;;;;17.25;72.73;100169.84;5111635;28;8818;-56
2023/10/09 03:27:09;;;;;;;;;7.80;7.80;;;;;17.26;73.02;100167.00;5096127;28;8817;-58
2023/10/09 03:29:39;;;;;;;;;9.20;9.00;;;;;17.25;72.41;100167.97;5096656;28;9483;-57
2023/10/09 03:32:06;;;;;;;;;13.20;11.60;;;;;17.25;72.89;100172.53;5075871;28;8836;-59
2023/10/09 03:34:34;;;;;;;;;10.40;10.00;;;;;17.23;73.01;100164.59;5075771;28;8859;-56
2023/10/09 03:37:05;;;;;;;;;7.00;6.80;;;;;17.24;73.30;100170.84;5075916;28;8816;-59
2023/10/09 03:39:38;;;;;;;;;6.20;6.00;;;;;17.24;73.12;100163.59;5075795;28;8848;-56
2023/10/09 03:42:11;;;;;;;;;11.20;10.40;;;;;17.24;73.03;100168.97;5078233;28;8808;-56
2023/10/09 03:44:43;;;;;;;;;11.20;10.00;;;;;17.25;72.65;100164.44;5095886;28;8829;-58
2023/10/09 03:47:11;;;;;;;;;10.00;9.60;;;;;17.25;72.93;100151.81;5096184;28;8856;-57
2023/10/09 03:49:39;;;;;;;;;10.40;10.40;;;;;17.28;72.98;100162.28;5095757;28;8860;-59
2023/10/09 03:52:09;;;;;;;;;12.80;12.00;;;;;17.29;72.90;100160.41;5096314;28;8836;-56
2023/10/09 03:54:38;;;;;;;;;10.00;9.20;;;;;17.28;72.31;100140.75;5095917;28;8843;-57
2023/10/09 03:57:06;;;;;;;;;11.40;9.60;;;;;17.24;72.73;100149.31;5095926;28;8833;-58
2023/10/09 03:59:34;;;;;;;;;13.40;10.40;;;;;17.13;73.05;100136.97;5095731;28;8837;-58
2023/10/09 04:02:04;;;;;;;;;10.80;9.80;;;;;17.06;73.43;100130.53;5094984;28;8829;-59
2023/10/09 04:04:33;;;;;;;;;13.40;10.60;;;;;17.00;73.35;100128.47;5094686;28;8934;-56
2023/10/09 04:07:01;;;;;;;;;9.40;9.40;;;;;16.96;73.68;100145.06;5094517;28;8864;-56
2023/10/09 04:09:35;;;;;;;;;9.20;7.40;;;;;16.95;73.34;100138.84;5094734;28;8821;-57
2023/10/09 04:12:24;;;;;;;;;12.80;10.00;;;;;16.97;73.54;100131.47;5094701;28;8903;-56
2023/10/09 04:15:00;;;;;;;;;12.60;12.00;;;;;16.95;73.39;100122.69;5095042;28;8841;-56
2023/10/09 04:17:34;;;;;;;;;12.00;11.60;;;;;16.96;73.44;100124.41;5095257;28;8920;-57
2023/10/09 04:20:47;;;;;;;;;11.00;10.00;;;;;16.99;73.57;100134.00;5094803;28;8878;-57
2023/10/09 04:23:05;;;;;;;;;11.60;10.60;;;;;17.03;73.50;100124.59;5095237;28;8868;-58
2023/10/09 04:25:41;;;;;;;;;9.80;9.60;;;;;17.05;73.10;100127.97;5095254;28;8829;-57
2023/10/09 04:28:09;;;;;;;;;12.00;11.20;;;;;17.10;73.24;100120.28;5099808;28;8862;-56
2023/10/09 04:30:40;;;;;;;;;13.00;12.00;;;;;17.12;73.45;100113.75;5100141;28;8903;-59
2023/10/09 04:33:27;;;;;;;;;12.00;10.40;;;;;17.16;73.35;100112.41;5096312;28;8963;-59
2023/10/09 04:38:37;;;;;;;;;10.20;10.20;;;;;17.20;72.80;100103.03;5098156;28;9514;-57
2023/10/09 04:41:08;;;;;;;;;10.00;9.60;;;;;17.21;73.15;100120.84;5098624;28;9507;-57
2023/10/09 04:43:34;;;;;;;;;8.40;8.00;;;;;17.23;72.62;100123.41;5098438;28;8856;-57
2023/10/09 04:46:12;;;;;;;;;7.80;7.40;;;;;17.25;72.97;100121.38;5090654;28;8816;-58
2023/10/09 04:48:45;;;;;;;;;12.00;10.60;;;;;17.27;73.08;100122.91;5078430;28;8832;-56
2023/10/09 04:51:33;;;;;;;;;11.60;9.80;;;;;17.30;72.32;100116.38;5078502;28;8839;-57
2023/10/09 04:54:12;;;;;;;;;9.40;9.20;;;;;17.30;72.60;100111.81;5078377;28;8823;-59
2023/10/09 04:56:51;;;;;;;;;10.00;9.60;;;;;17.30;72.40;100119.91;5078438;28;8832;-59
2023/10/09 04:59:24;;;;;;;;;9.80;9.80;;;;;17.30;73.05;100117.19;5078630;28;8820;-58
2023/10/09 05:01:58;;;;;;;;;9.00;7.40;;;;;17.29;72.63;100115.50;5078343;28;8963;-59
2023/10/09 05:04:41;;;;;;;;;4.80;4.80;;;;;17.28;72.59;100113.84;5078854;28;8828;-58
2023/10/09 05:07:22;;;;;;;;;11.20;9.60;;;;;17.28;72.69;100111.13;5078338;28;8812;-59
2023/10/09 05:10:14;;;;;;;;;9.00;6.60;;;;;17.28;72.93;100108.44;5077287;28;8852;-58
2023/10/09 05:12:46;;;;;;;;;9.20;9.00;;;;;17.29;72.76;100112.81;5077408;28;8824;-57
2023/10/09 05:15:14;;;;;;;;;11.60;6.40;;;;;17.29;72.77;100107.44;5077229;28;8878;-58
2023/10/09 05:17:51;;;;;;;;;9.80;9.60;;;;;17.29;72.41;100110.13;5077315;28;8824;-58
2023/10/09 05:23:23;;;;;;;;;3.00;3.00;;;;;17.30;72.58;100106.44;5089169;28;8818;-59
2023/10/09 05:25:58;;;;;;;;;8.60;7.00;;;;;17.29;72.91;100107.44;5097716;28;8834;-58
2023/10/09 05:28:30;;;;;;;;;8.60;8.60;;;;;17.30;72.41;100095.66;5098048;28;8864;-60
2023/10/09 05:31:08;;;;;;;;;8.60;7.40;;;;;17.30;72.31;100094.84;5097933;28;8849;-59
2023/10/09 05:33:36;;;;;;;;;9.20;8.20;;;;;17.29;72.75;100099.38;5097299;28;8834;-59
2023/10/09 05:36:35;;;;;;;;;11.00;10.20;;;;;17.28;72.38;100108.44;5097355;28;8837;-58
2023/10/09 05:39:18;;;;;;;;;14.60;12.00;;;;;17.28;72.47;100118.34;5097090;28;8853;-58
2023/10/09 05:41:52;;;;;;;;;9.80;9.80;;;;;17.26;72.64;100123.06;5096765;28;8915;-60
2023/10/09 05:53:05;;;;;;;;;6.40;3.60;;;;;17.17;72.50;100173.31;5081871;28;8834;-58
2023/10/09 06:04:15;;;;;;;;;11.60;9.00;;;;;17.17;72.54;100186.75;5081189;28;8880;-57
2023/10/09 06:06:44;;;;;;;;;10.00;9.20;;;;;17.18;72.81;100171.47;5096694;28;8880;-57
2023/10/09 06:12:32;;;;;;;;;7.00;7.00;;;;;17.18;72.82;100172.34;5083721;28;8854;-58
2023/10/09 06:14:57;;;;;;;;;15.00;10.40;;;;;17.17;72.55;100180.56;5096460;28;8918;-58
2023/10/09 06:17:26;;;;;;;;;9.20;9.00;;;;;17.14;73.19;100195.16;5096455;28;8826;-57
2023/10/09 06:19:58;;;;;;;;;10.00;10.00;;;;;17.13;72.83;100192.63;5096766;28;8841;-59
2023/10/09 06:25:12;;;;;;;;;7.00;7.00;;;;;17.14;72.83;100207.75;5076605;28;8836;-59
2023/10/09 06:30:26;;;;;;;;;14.40;12.40;;;;;17.16;73.05;100219.25;5073265;28;8867;-58
2023/10/09 06:33:18;;;;;;;;;10.40;9.40;;;;;17.18;73.08;100209.16;5066547;28;8814;-59
2023/10/09 06:35:54;;;;;;;;;9.80;9.60;;;;;17.21;72.51;100215.06;5055088;28;8956;-59
2023/10/09 06:38:51;;;;;;;;;14.20;13.80;;;;;17.25;72.96;100234.44;5062602;28;8912;-58
2023/10/09 06:44:05;;;;;;;;;9.40;7.80;;;;;17.28;72.54;100231.44;5105593;28;8862;-58
2023/10/09 06:46:52;;;;;;;;;6.00;6.00;;;;;17.29;72.52;100225.91;5103355;28;8806;-57
2023/10/09 06:49:33;;;;;;;;;10.40;10.40;;;;;17.30;72.27;100222.19;5094301;28;8818;-58
2023/10/09 06:52:15;;;;;;;;;14.20;12.20;;;;;17.32;72.36;100212.09;5104049;28;8800;-58
2023/10/09 06:54:50;;;;;;;;;12.40;11.20;;;;;17.34;72.44;100212.81;5095357;28;8826;-58
2023/10/09 06:57:43;;;;;;;;;8.80;8.80;;;;;17.35;72.05;100219.88;5093752;28;8894;-57
2023/10/09 07:02:53;;;;;;;;;8.20;7.00;;;;;17.45;72.53;100211.75;5064064;28;8888;-58
2023/10/09 07:05:21;;;;;;;;;12.00;12.00;;;;;17.53;71.89;100220.69;5094948;28;8844;-60
2023/10/09 07:07:54;;;;;;;;;10.80;9.00;;;;;17.59;72.06;100217.38;5094512;28;8841;-59
2023/10/09 07:10:39;;;;;;;;;12.20;12.20;;;;;17.68;72.03;100210.19;5094554;28;8822;-59
2023/10/09 07:13:06;;;;;;;;;11.60;9.00;;;;;17.72;71.22;100204.31;5094692;28;8818;-59
2023/10/09 07:18:49;;;;;;;;;12.00;12.00;;;;;17.68;72.11;100176.00;5047191;28;8846;-58
2023/10/09 07:21:27;;;;;;;;;6.80;6.00;;;;;17.65;72.07;100178.16;5095123;28;8818;-58
2023/10/09 07:23:56;;;;;;;;;13.00;11.80;;;;;17.67;71.79;100185.09;5095230;28;8848;-59
2023/10/09 07:26:36;;;;;;;;;13.00;11.60;;;;;17.72;72.06;100177.38;5095410;28;8960;-58
2023/10/09 07:29:16;;;;;;;;;12.00;12.00;;;;;17.78;71.71;100175.88;5095408;28;8853;-59
2023/10/09 07:31:45;;;;;;;;;12.60;12.00;;;;;17.82;72.02;100182.63;5095103;28;8826;-58
2023/10/09 07:34:52;;;;;;;;;12.40;12.00;;;;;17.85;71.69;100183.13;5095164;28;8842;-57
2023/10/09 07:37:22;;;;;;;;;9.80;9.20;;;;;17.91;71.44;100192.44;5094972;28;8941;-58
2023/10/09 07:39:56;;;;;;;;;10.40;10.00;;;;;17.93;71.40;100196.63;5094985;28;8831;-57
2023/10/09 07:42:33;;;;;;;;;7.40;6.80;;;;;17.94;71.40;100209.13;5094793;28;8854;-57
2023/10/09 07:45:12;;;;;;;;;12.40;12.20;;;;;17.98;71.18;100229.34;5094950;28;8844;-58
2023/10/09 07:50:48;;;;;;;;;12.60;11.60;;;;;18.06;71.40;100259.03;4993487;28;9004;-58
2023/10/09 07:53:18;;;;;;;;;12.00;12.00;;;;;18.10;71.39;100257.72;5069666;28;8806;-58
2023/10/09 07:55:55;;;;;;;;;9.00;7.80;;;;;18.13;71.20;100252.00;5104744;28;8808;-59
2023/10/09 07:58:25;;;;;;;;;17.60;15.00;;;;;18.16;71.30;100235.50;5094346;28;8830;-59
2023/10/09 08:01:15;;;;;;;;;15.40;13.40;;;;;18.18;71.35;100220.00;5094209;28;8953;-58
2023/10/09 08:03:45;;;;;;;;;18.40;14.20;;;;;18.21;70.89;100208.88;5093823;28;8892;-58
2023/10/09 08:15:12;;;;;;;;;10.40;9.60;;;;;18.22;71.53;100172.00;4958475;28;8853;-59
2023/10/09 08:17:48;;;;;;;;;1.00;0.00;;;;;18.23;71.17;100204.16;5070381;28;8861;-58
2023/10/09 08:20:17;;;;;;;;;15.20;12.80;;;;;18.24;71.19;100196.94;5098795;28;8846;-60
2023/10/09 08:22:50;;;;;;;;;13.60;13.00;;;;;18.26;71.35;100208.38;5098806;28;8821;-60
2023/10/09 08:25:31;;;;;;;;;13.40;12.20;;;;;18.28;71.13;100204.53;5098824;28;8833;-56
2023/10/09 08:28:28;;;;;;;;;15.20;13.40;;;;;18.35;71.26;100224.47;5097706;28;8853;-59
2023/10/09 08:31:03;;;;;;;;;8.80;8.60;;;;;18.44;71.17;100230.72;5097462;28;8852;-56
2023/10/09 08:33:43;;;;;;;;;14.20;13.60;;;;;18.53;71.19;100232.44;5097657;28;8861;-58
2023/10/09 08:36:22;;;;;;;;;12.20;9.60;;;;;18.54;70.53;100244.91;5096458;28;8789;-57
2023/10/09 08:38:52;;;;;;;;;17.20;12.20;;;;;18.55;70.41;100260.09;5096862;28;8830;-57
2023/10/09 08:41:23;;;;;;;;;15.40;15.00;;;;;18.53;71.11;100267.50;5097128;28;8950;-58
2023/10/09 08:43:53;;;;;;;;;12.00;11.20;;;;;18.51;70.62;100267.66;5097204;28;8826;-57
2023/10/09 08:46:21;;;;;;;;;12.00;10.00;;;;;18.51;70.71;100256.88;5096771;28;8821;-59
2023/10/09 08:48:49;;;;;;;;;6.80;6.00;;;;;18.51;70.99;100269.53;5097076;28;8859;-56
2023/10/09 08:51:18;;;;;;;;;10.40;10.00;;;;;18.52;71.19;100269.34;5097447;28;8842;-59
2023/10/09 08:53:46;;;;;;;;;12.20;12.20;;;;;18.55;70.64;100274.44;5097977;28;8945;-58
2023/10/09 08:56:19;;;;;;;;;12.20;10.40;;;;;18.55;70.94;100274.44;5110120;28;8816;-58
2023/10/09 08:58:47;;;;;;;;;11.00;11.00;;;;;18.57;71.06;100272.41;5117877;28;8889;-59
2023/10/09 09:01:17;;;;;;;;;15.60;15.40;;;;;18.58;71.20;100262.47;5118051;28;8851;-59
2023/10/09 09:03:45;;;;;;;;;9.60;7.80;;;;;18.56;71.05;100259.06;5108893;28;8838;-59
2023/10/09 09:06:14;;;;;;;;;15.60;14.80;;;;;18.51;71.09;100250.66;5097400;28;8817;-58
2023/10/09 09:08:44;;;;;;;;;12.40;12.20;;;;;18.46;71.29;100234.97;5097373;28;8814;-59
2023/10/09 09:11:14;;;;;;;;;13.40;13.00;;;;;18.45;71.38;100216.22;5097535;28;8825;-59
2023/10/09 09:13:42;;;;;;;;;12.80;12.00;;;;;18.44;71.17;100201.88;5097185;28;8948;-56
2023/10/09 09:16:11;;;;;;;;;13.00;11.20;;;;;18.43;71.59;100194.81;5096254;28;8886;-58
2023/10/09 09:18:45;;;;;;;;;10.80;9.20;;;;;18.43;71.43;100184.03;5094527;28;8850;-59
2023/10/09 09:21:15;;;;;;;;;14.40;14.40;;;;;18.49;71.00;100183.38;5096725;28;8837;-57
2023/10/09 09:23:44;;;;;;;;;11.20;10.00;;;;;18.61;71.08;100168.53;5095697;28;8930;-57
2023/10/09 09:26:12;;;;;;;;;14.60;12.80;;;;;18.76;70.40;100136.34;5095878;28;8854;-57
2023/10/09 09:28:41;;;;;;;;;12.60;10.80;;;;;18.89;70.79;100105.13;5096806;28;8946;-58
2023/10/09 09:31:13;;;;;;;;;14.40;12.80;;;;;19.03;70.19;100100.91;5096100;28;8833;-57
2023/10/09 09:33:43;;;;;;;;;14.20;12.80;;;;;19.17;69.73;100102.84;5096448;28;8871;-58
2023/10/09 09:36:11;;;;;;;;;15.20;14.20;;;;;19.30;69.85;100098.66;5097245;28;9494;-57
2023/10/09 09:38:47;;;;;;;;;17.60;17.60;;;;;19.44;69.29;100092.53;5096728;28;8840;-58
2023/10/09 09:41:23;;;;;;;;;14.80;11.80;;;;;19.56;68.82;100087.59;5096733;28;8852;-58
2023/10/09 09:43:56;;;;;;;;;7.40;7.40;;;;;19.65;68.72;100092.75;5097234;28;8830;-57
2023/10/09 09:46:32;;;;;;;;;13.00;12.20;;;;;19.79;68.54;100094.72;5095518;28;8902;-57
2023/10/09 09:49:00;;;;;;;;;10.00;9.00;;;;;19.95;68.55;100094.63;5096354;28;8834;-57
2023/10/09 09:51:29;;;;;;;;;8.20;7.00;;;;;20.14;68.21;100096.94;5096967;28;8838;-57
2023/10/09 09:53:59;;;;;;;;;7.40;7.40;;;;;20.36;67.67;100085.28;5096767;28;8830;-57
2023/10/09 09:56:30;;;;;;;;;10.00;8.20;;;;;20.61;67.17;100092.16;5095428;28;8860;-57
2023/10/09 09:58:59;;;;;;;;;10.00;8.20;;;;;20.79;66.24;100087.25;5079986;28;8832;-57
2023/10/09 10:01:32;;;;;;;;;8.20;7.00;;;;;20.84;66.09;100076.72;5076196;28;8962;-59
2023/10/09 10:04:01;;;;;;;;;8.80;8.00;;;;;20.89;66.24;100082.47;5068371;28;8873;-58
2023/10/09 10:06:33;;;;;;;;;10.40;10.00;;;;;21.01;66.10;100094.53;5061222;28;8944;-58
2023/10/09 10:09:02;;;;;;;;;10.40;10.40;;;;;21.06;66.18;100106.50;5059209;28;8825;-59
2023/10/09 10:11:30;;;;;;;;;10.60;10.20;;;;;21.08;66.65;100122.56;5073230;28;8839;-57
2023/10/09 10:14:02;;;;;;;;;10.20;9.20;;;;;21.11;65.89;100133.03;5062058;28;8824;-57
2023/10/09 10:16:36;;;;;;;;;10.80;10.80;;;;;21.15;66.17;100139.75;5062142;28;8809;-58
2023/10/09 10:21:49;;;;;;;;;9.60;9.60;;;;;21.19;65.82;100163.56;5058813;28;8822;-57
2023/10/09 10:24:23;;;;;;;;;9.60;9.20;;;;;21.24;65.83;100154.88;5088171;28;8822;-57
2023/10/09 10:26:53;;;;;;;;;10.80;10.20;;;;;21.33;66.11;100170.06;5091110;28;8809;-58
2023/10/09 10:29:26;;;;;;;;;11.40;10.00;;;;;21.42;65.93;100169.78;5075003;28;8873;-57
2023/10/09 10:31:55;;;;;;;;;13.80;11.80;;;;;21.46;66.05;100181.09;5074020;28;8828;-58
2023/10/09 10:34:24;;;;;;;;;11.00;10.00;;;;;21.43;65.65;100176.06;5073987;28;8878;-58
2023/10/09 10:36:58;;;;;;;;;12.20;11.00;;;;;21.39;66.23;100181.00;5074250;28;8983;-58
2023/10/09 10:39:42;;;;;;;;;12.00;11.20;;;;;21.34;65.96;100172.56;5081361;28;8811;-58
2023/10/09 10:42:33;;;;;;;;;10.20;10.20;;;;;21.31;66.03;100163.97;5094077;28;8840;-57
2023/10/09 10:45:00;;;;;;;;;10.20;10.00;;;;;21.24;66.05;100172.00;5094431;28;8873;-57
2023/10/09 10:47:32;;;;;;;;;14.00;13.00;;;;;21.20;66.20;100165.25;5094296;28;8832;-57
2023/10/09 10:50:11;;;;;;;;;11.00;11.00;;;;;21.19;66.65;100170.88;5093793;28;8821;-58
2023/10/09 10:52:42;;;;;;;;;11.80;11.20;;;;;21.16;66.41;100177.50;5094205;28;8829;-58
2023/10/09 10:55:48;;;;;;;;;10.80;10.20;;;;;21.13;66.52;100177.03;5094278;28;8913;-58
2023/10/09 10:58:23;;;;;;;;;11.00;11.00;;;;;21.10;66.58;100188.25;5094255;28;8840;-57
2023/10/09 11:03:55;;;;;;;;;12.00;12.00;;;;;21.08;66.86;100191.13;5093861;28;8927;-59
2023/10/09 11:06:23;;;;;;;;;12.40;10.40;;;;;21.07;66.77;100185.88;5093981;28;8859;-57
2023/10/09 11:08:56;;;;;;;;;11.40;11.40;;;;;21.03;66.71;100190.81;5093733;28;8849;-58
2023/10/09 11:11:31;;;;;;;;;13.60;13.40;;;;;20.98;67.23;100176.16;5092804;28;8901;-58
2023/10/09 11:13:58;;;;;;;;;13.20;11.00;;;;;20.91;67.17;100180.59;5093559;28;8857;-58
2023/10/09 11:16:42;;;;;;;;;10.00;9.60;;;;;20.91;67.60;100183.31;5093832;28;9533;-58
2023/10/09 11:19:22;;;;;;;;;11.20;11.20;;;;;20.92;66.87;100186.88;5093809;28;8960;-58
2023/10/09 11:21:58;;;;;;;;;10.60;10.00;;;;;21.01;67.29;100170.34;5093055;28;8838;-59
2023/10/09 11:24:25;;;;;;;;;12.80;11.60;;;;;21.18;66.73;100166.50;5103000;28;9833;-57
2023/10/09 11:26:56;;;;;;;;;10.40;9.60;;;;;21.31;66.06;100170.25;5111811;28;8959;-60
2023/10/09 11:29:23;;;;;;;;;11.20;11.00;;;;;21.44;66.16;100177.72;5096775;28;8828;-58
2023/10/09 11:31:51;;;;;;;;;11.60;11.40;;;;;21.51;66.16;100181.38;5104096;28;8814;-58
2023/10/09 11:34:28;;;;;;;;;12.60;11.60;;;;;21.54;66.07;100170.16;5092560;28;8856;-58
2023/10/09 11:36:57;;;;;;;;;7.80;7.00;;;;;21.64;65.53;100170.75;5092940;28;8821;-58
2023/10/09 11:39:31;;;;;;;;;11.40;10.00;;;;;21.65;65.87;100175.97;5093293;28;8852;-58
2023/10/09 11:41:59;;;;;;;;;11.80;9.20;;;;;21.67;65.57;100179.38;5092330;28;8846;-58
2023/10/09 11:44:33;;;;;;;;;11.00;10.40;;;;;21.64;65.37;100187.81;5093522;28;8868;-58
2023/10/09 11:47:14;;;;;;;;;11.20;11.20;;;;;21.59;65.97;100197.56;5092627;28;8842;-57
2023/10/09 11:49:44;;;;;;;;;13.40;11.20;;;;;21.56;66.02;100192.53;5051398;28;8822;-58
2023/10/09 11:54:58;;;;;;;;;11.80;10.40;;;;;21.84;65.73;100204.41;5051455;28;8842;-58
2023/10/09 11:57:30;;;;;;;;;9.20;9.20;;;;;22.12;64.72;100195.44;5051571;28;8919;-58
2023/10/09 11:59:59;;;;;;;;;11.60;10.40;;;;;22.53;63.87;100193.03;5052196;28;8862;-57
2023/10/09 12:02:27;;;;;;;;;11.80;11.00;;;;;22.81;63.03;100192.06;5051562;28;9000;-58
2023/10/09 12:04:55;;;;;;;;;11.80;11.00;;;;;22.83;62.80;100189.16;5051803;28;9096;-58
2023/10/09 12:07:25;;;;;;;;;4.00;4.00;;;;;22.66;63.66;100193.16;5052183;28;8891;-58
2023/10/09 12:09:56;;;;;;;;;10.60;9.00;;;;;22.41;64.23;100194.53;5052494;28;8865;-58
2023/10/09 12:12:26;;;;;;;;;12.00;11.00;;;;;22.18;64.90;100188.41;5051632;28;8984;-58
2023/10/09 12:14:54;;;;;;;;;14.20;11.60;;;;;21.95;65.23;100187.69;5051743;28;8981;-58
2023/10/09 12:17:25;;;;;;;;;10.20;9.20;;;;;21.75;65.33;100183.84;5052436;28;8907;-58
2023/10/09 12:19:56;;;;;;;;;11.20;11.00;;;;;21.58;66.36;100187.75;5052174;28;8916;-58
2023/10/09 12:22:26;;;;;;;;;13.20;12.00;;;;;21.48;66.44;100190.72;5052574;28;8834;-58
2023/10/09 12:24:56;;;;;;;;;14.00;11.60;;;;;21.45;66.21;100199.22;5073488;28;8826;-61
2023/10/09 12:27:24;;;;;;;;;11.00;11.00;;;;;21.40;66.36;100206.25;5092788;28;8846;-60
2023/10/09 12:29:52;;;;;;;;;11.80;11.20;;;;;21.36;66.90;100203.06;5078837;28;8814;-58
2023/10/09 12:32:21;;;;;;;;;13.00;11.80;;;;;21.36;66.88;100203.06;5057744;28;8872;-60
2023/10/09 12:34:50;;;;;;;;;11.60;11.60;;;;;21.36;66.34;100204.91;5086138;28;9070;-58
2023/10/09 12:37:20;;;;;;;;;12.20;10.00;;;;;21.31;66.82;100207.31;5091412;28;8838;-57
2023/10/09 12:39:49;;;;;;;;;11.20;10.20;;;;;21.23;66.60;100202.84;5076452;28;8837;-58
2023/10/09 12:42:17;;;;;;;;;12.20;12.20;;;;;21.17;66.85;100205.41;5092183;28;8867;-59
2023/10/09 12:44:45;;;;;;;;;14.20;13.40;;;;;21.11;67.25;100217.00;5091712;28;8842;-59
2023/10/09 12:47:14;;;;;;;;;14.80;14.00;;;;;21.07;67.08;100212.97;5091810;28;8818;-59
2023/10/09 12:49:44;;;;;;;;;12.80;11.60;;;;;21.00;67.20;100210.16;5092243;28;8829;-60